Time;durP1;ratioP1;P1;durP2;ratioP2;P2;SDS_P1;SDS_P2;PMS_P1;PMS_P2;Temp;Humidity;BMP_temperature;BMP_pressure;BME280_temperature;BME280_humidity;BME280_pressure;Samples;Min_cycle;Max_cycle;Signal;HPM_P1;HPM_P2
2022/05/15 00:00:37;;;;;;;12.20;7.90;;;13.90;1.00;;;;;;4989764;28;20409;-62
2022/05/15 00:00:42;;;;;;;11.90;6.78;;;13.90;1.00;;;;;;4989605;28;20417;-63
2022/05/15 00:03:14;;;;;;;10.70;6.80;;;14.00;1.00;;;;;;4989724;28;20409;-63
2022/05/15 00:05:42;;;;;;;13.10;6.70;;;14.00;1.00;;;;;;4990166;28;20432;-63
2022/05/15 00:08:09;;;;;;;13.30;7.30;;;14.10;1.00;;;;;;4989307;28;20495;-61
2022/05/15 00:10:35;;;;;;;15.23;7.15;;;14.10;1.00;;;;;;4973063;28;20780;-63
2022/05/15 00:13:01;;;;;;;14.07;7.68;;;14.10;1.00;;;;;;4989058;28;20413;-61
2022/05/15 00:15:30;;;;;;;11.52;7.50;;;13.90;1.00;;;;;;4990118;28;20398;-57
2022/05/15 00:17:56;;;;;;;12.30;7.10;;;13.80;1.00;;;;;;4989239;28;20493;-62
2022/05/15 00:20:21;;;;;;;12.18;6.80;;;13.90;1.00;;;;;;4990129;28;20450;-62
2022/05/15 00:22:47;;;;;;;12.97;7.10;;;14.00;1.00;;;;;;4989013;28;20899;-61
2022/05/15 00:25:13;;;;;;;13.97;7.10;;;14.10;1.00;;;;;;4990246;28;20383;-62
2022/05/15 00:27:38;;;;;;;14.20;7.50;;;14.10;1.00;;;;;;4989854;28;21143;-62
2022/05/15 00:30:05;;;;;;;12.93;7.67;;;13.90;1.00;;;;;;4989275;28;20379;-61
2022/05/15 00:32:32;;;;;;;12.25;7.28;;;13.70;1.00;;;;;;4989728;28;20465;-62
2022/05/15 00:34:58;;;;;;;14.45;8.07;;;13.80;1.00;;;;;;4989238;28;20473;-62
2022/05/15 00:37:24;;;;;;;13.00;7.30;;;13.90;1.00;;;;;;4989610;28;20438;-59
2022/05/15 00:39:49;;;;;;;11.50;7.40;;;13.90;1.00;;;;;;4989194;28;20395;-61
2022/05/15 00:42:15;;;;;;;13.32;8.10;;;13.80;1.00;;;;;;4989837;28;20457;-62
2022/05/15 00:44:41;;;;;;;14.80;9.03;;;13.70;1.00;;;;;;4990130;28;20895;-62
2022/05/15 00:47:06;;;;;;;12.55;8.32;;;13.60;1.00;;;;;;4989008;28;20391;-60
2022/05/15 00:49:34;;;;;;;13.95;7.85;;;13.60;31.10;;;;;;4990069;28;20403;-62
2022/05/15 00:52:04;;;;;;;13.02;7.80;;;13.60;99.90;;;;;;4988778;28;20418;-62
2022/05/15 00:54:44;;;;;;;15.45;8.18;;;13.50;99.90;;;;;;4989860;28;20876;-62
2022/05/15 00:57:38;;;;;;;13.27;8.25;;;13.40;1.00;;;;;;4989353;28;20405;-61
2022/05/15 01:00:07;;;;;;;13.30;7.90;;;13.30;1.00;;;;;;4981545;28;20402;-61
2022/05/15 01:02:37;;;;;;;16.00;8.15;;;13.30;1.00;;;;;;4989462;28;20403;-62
2022/05/15 01:05:04;;;;;;;18.17;8.63;;;13.30;1.00;;;;;;4989101;28;20401;-62
2022/05/15 01:07:30;;;;;;;13.93;8.48;;;13.30;1.00;;;;;;4989218;28;20518;-61
2022/05/15 01:09:55;;;;;;;16.20;8.98;;;13.30;1.00;;;;;;4988977;28;20948;-62
2022/05/15 01:12:21;;;;;;;15.17;8.83;;;13.30;99.90;;;;;;4994786;28;20420;-62
2022/05/15 01:14:48;;;;;;;13.27;8.73;;;13.40;99.90;;;;;;4996634;28;20926;-62
2022/05/15 01:17:14;;;;;;;13.10;8.20;;;13.40;99.90;;;;;;4992414;28;20883;-61
2022/05/15 01:19:42;;;;;;;14.30;8.50;;;13.30;1.00;;;;;;4994178;28;20391;-60
2022/05/15 01:22:11;;;;;;;14.18;8.52;;;13.20;99.90;;;;;;4992855;28;20448;-62
2022/05/15 01:24:37;;;;;;;15.85;8.43;;;13.10;99.90;;;;;;4987131;28;20428;-61
2022/05/15 01:27:08;;;;;;;13.63;8.45;;;13.10;99.90;;;;;;5011888;28;21106;-61
2022/05/15 01:29:38;;;;;;;13.85;8.63;;;13.20;99.90;;;;;;5001133;28;20399;-60
2022/05/15 01:32:04;;;;;;;14.88;8.40;;;13.20;99.90;;;;;;4992070;28;20686;-61
2022/05/15 01:34:30;;;;;;;15.90;8.40;;;13.10;1.00;;;;;;5003477;28;20393;-61
2022/05/15 01:36:59;;;;;;;11.93;8.10;;;13.00;39.60;;;;;;5011572;28;20411;-61
2022/05/15 01:39:25;;;;;;;13.65;8.10;;;13.00;4.50;;;;;;4994120;28;20414;-62
2022/05/15 01:41:51;;;;;;;13.40;8.43;;;13.00;1.00;;;;;;4992046;28;20502;-62
2022/05/15 01:44:16;;;;;;;15.63;8.60;;;13.00;1.00;;;;;;5009141;28;20886;-61
2022/05/15 01:46:42;;;;;;;15.10;8.40;;;12.80;1.00;;;;;;5012272;28;20390;-61
2022/05/15 01:49:08;;;;;;;13.57;8.73;;;12.90;1.00;;;;;;5009829;28;20393;-61
2022/05/15 01:51:37;;;;;;;12.53;8.10;;;12.80;1.00;;;;;;5011858;28;20512;-61
2022/05/15 01:54:03;;;;;;;13.20;7.87;;;12.70;1.00;;;;;;4996279;28;20421;-61
2022/05/15 01:56:29;;;;;;;17.58;8.55;;;12.70;1.00;;;;;;4992468;28;20387;-62
2022/05/15 01:58:55;;;;;;;14.70;8.40;;;12.60;99.90;;;;;;5005142;28;20396;-62
2022/05/15 02:01:21;;;;;;;14.18;8.20;;;12.70;70.00;;;;;;5012000;28;20404;-60
2022/05/15 02:03:47;;;;;;;13.00;7.70;;;12.80;99.90;;;;;;4998255;28;20399;-58
2022/05/15 02:06:13;;;;;;;13.20;8.17;;;12.80;1.00;;;;;;4997624;28;20404;-61
2022/05/15 02:08:38;;;;;;;12.67;7.87;;;12.70;1.00;;;;;;5002120;28;20426;-61
2022/05/15 02:11:05;;;;;;;13.52;8.40;;;12.70;23.90;;;;;;4991289;28;20561;-61
2022/05/15 02:13:31;;;;;;;13.40;7.75;;;12.70;1.00;;;;;;4992540;28;20466;-61
2022/05/15 02:15:57;;;;;;;14.20;7.75;;;12.70;92.60;;;;;;5011281;28;20459;-61
2022/05/15 02:18:23;;;;;;;12.30;7.22;;;12.70;4.60;;;;;;5011231;28;20873;-61
2022/05/15 02:20:49;;;;;;;13.00;7.80;;;12.60;1.00;;;;;;4991243;28;20436;-61
2022/05/15 02:23:15;;;;;;;16.00;8.47;;;12.50;99.90;;;;;;4992002;28;20453;-60
2022/05/15 02:25:41;;;;;;;12.65;7.28;;;12.40;1.00;;;;;;4992418;28;20414;-60
2022/05/15 02:28:08;;;;;;;11.90;7.60;;;12.50;99.90;;;;;;4990335;28;20414;-60
2022/05/15 02:30:33;;;;;;;13.90;7.55;;;12.40;1.00;;;;;;5008877;28;20895;-60
2022/05/15 02:32:59;;;;;;;13.25;8.02;;;12.40;1.00;;;;;;5010513;28;20495;-60
2022/05/15 02:35:25;;;;;;;13.17;7.83;;;12.30;1.00;;;;;;5009311;28;20459;-61
2022/05/15 02:37:51;;;;;;;11.05;7.30;;;12.20;10.00;;;;;;5010381;28;20409;-60
2022/05/15 02:40:20;;;;;;;14.63;7.82;;;12.10;99.90;;;;;;4995488;28;20409;-60
2022/05/15 02:42:46;;;;;;;13.48;8.25;;;12.10;11.50;;;;;;4990971;28;20382;-55
2022/05/15 02:45:12;;;;;;;11.25;7.38;;;12.00;99.90;;;;;;5005575;28;20393;-62
2022/05/15 02:47:38;;;;;;;11.18;6.90;;;12.00;22.20;;;;;;5011057;28;20495;-61
2022/05/15 02:52:49;;;;;;;12.40;8.18;;;12.00;99.90;;;;;;5009797;28;20420;-60
2022/05/15 02:55:15;;;;;;;13.37;8.20;;;11.90;99.90;;;;;;4997135;28;20403;-62
2022/05/15 02:57:42;;;;;;;12.43;7.70;;;11.90;1.00;;;;;;4991332;28;20386;-60
2022/05/15 03:00:10;;;;;;;12.45;7.35;;;11.90;1.00;;;;;;4991400;28;20399;-62
2022/05/15 03:02:38;;;;;;;13.50;7.90;;;12.00;99.90;;;;;;4991510;28;20402;-60
2022/05/15 03:05:05;;;;;;;13.02;7.70;;;12.00;1.00;;;;;;4990190;28;20730;-60
2022/05/15 03:07:31;;;;;;;15.15;8.48;;;12.10;56.00;;;;;;4991216;28;20403;-60
2022/05/15 03:09:56;;;;;;;11.70;7.77;;;12.10;1.00;;;;;;4990112;28;20411;-61
2022/05/15 03:12:22;;;;;;;12.80;8.40;;;12.20;1.00;;;;;;4996032;28;20956;-60
2022/05/15 03:14:47;;;;;;;14.57;8.05;;;12.10;99.90;;;;;;5010039;28;20404;-55
2022/05/15 03:17:16;;;;;;;11.67;7.00;;;12.10;99.90;;;;;;5006668;28;20891;-60
2022/05/15 03:19:43;;;;;;;12.52;7.43;;;12.10;99.90;;;;;;4990860;28;20485;-61
2022/05/15 03:22:09;;;;;;;12.38;7.70;;;12.00;99.90;;;;;;4992829;28;20828;-60
2022/05/15 03:24:34;;;;;;;13.15;7.88;;;12.00;99.90;;;;;;5010618;28;20846;-57
2022/05/15 03:27:00;;;;;;;16.40;7.83;;;12.10;99.90;;;;;;5007519;28;20455;-59
2022/05/15 03:29:27;;;;;;;12.48;8.10;;;12.00;1.00;;;;;;4990828;28;20757;-61
2022/05/15 03:31:53;;;;;;;12.30;7.40;;;11.90;1.00;;;;;;4990741;28;20521;-61
2022/05/15 03:34:19;;;;;;;14.63;7.68;;;11.90;1.00;;;;;;5010287;28;20823;-61
2022/05/15 03:36:46;;;;;;;12.45;7.85;;;11.90;1.00;;;;;;5002139;28;20426;-58
2022/05/15 03:39:13;;;;;;;12.63;7.97;;;11.90;99.90;;;;;;4990122;28;20410;-60
2022/05/15 03:41:39;;;;;;;14.07;7.70;;;11.80;1.00;;;;;;5008181;28;20420;-60
2022/05/15 03:44:05;;;;;;;14.30;8.00;;;11.70;99.90;;;;;;5002190;28;21127;-60
2022/05/15 03:46:31;;;;;;;14.23;7.60;;;11.80;99.90;;;;;;4990537;28;20478;-60
2022/05/15 03:48:58;;;;;;;13.85;8.02;;;11.80;1.00;;;;;;5009603;28;20906;-61
2022/05/15 03:51:24;;;;;;;11.95;7.20;;;11.90;1.00;;;;;;4999057;28;20469;-60
2022/05/15 03:53:50;;;;;;;15.13;8.02;;;12.00;1.00;;;;;;4993140;28;20401;-59
2022/05/15 03:56:16;;;;;;;11.83;7.60;;;11.90;1.00;;;;;;5009527;28;20389;-59
2022/05/15 03:58:43;;;;;;;11.88;7.80;;;11.90;90.90;;;;;;4995218;28;20398;-59
2022/05/15 04:01:09;;;;;;;12.13;7.75;;;11.80;99.90;;;;;;4997777;28;20418;-61
2022/05/15 04:03:35;;;;;;;15.18;8.05;;;11.80;97.50;;;;;;5009648;28;20420;-60
2022/05/15 04:06:01;;;;;;;13.05;8.00;;;11.80;99.90;;;;;;5006176;28;20776;-61
2022/05/15 04:08:27;;;;;;;13.20;8.02;;;11.90;25.60;;;;;;4999524;28;20452;-61
2022/05/15 04:10:54;;;;;;;12.70;7.75;;;12.00;1.00;;;;;;4993065;28;20444;-61
2022/05/15 04:13:20;;;;;;;15.00;7.60;;;12.00;99.90;;;;;;4989973;28;20484;-61
2022/05/15 04:15:45;;;;;;;13.25;8.00;;;12.00;1.00;;;;;;5006825;28;20396;-56
2022/05/15 04:18:11;;;;;;;13.70;7.77;;;12.00;1.00;;;;;;4997292;28;20402;-61
2022/05/15 04:20:37;;;;;;;14.98;8.00;;;12.10;99.90;;;;;;4992629;28;20403;-61
2022/05/15 04:23:04;;;;;;;15.27;8.80;;;12.20;99.90;;;;;;5008860;28;20808;-61
2022/05/15 04:25:29;;;;;;;12.85;7.80;;;12.30;1.00;;;;;;4995761;28;20474;-61
2022/05/15 04:27:55;;;;;;;12.00;7.90;;;12.40;99.90;;;;;;4992867;28;20495;-61
2022/05/15 04:30:24;;;;;;;12.70;7.70;;;12.50;1.00;;;;;;5009831;28;20385;-61
2022/05/15 04:32:51;;;;;;;13.57;7.68;;;12.70;99.90;;;;;;4992810;28;20417;-60
2022/05/15 04:35:19;;;;;;;14.03;8.90;;;12.60;1.00;;;;;;4997839;28;20947;-60
2022/05/15 04:37:45;;;;;;;11.68;7.40;;;12.60;1.00;;;;;;5009555;28;20381;-60
2022/05/15 04:40:11;;;;;;;13.80;7.90;;;12.40;99.90;;;;;;4992659;28;20892;-60
2022/05/15 04:42:38;;;;;;;12.40;7.68;;;12.40;99.90;;;;;;4995676;28;20410;-60
2022/05/15 04:45:04;;;;;;;11.07;7.40;;;12.50;99.90;;;;;;4989397;28;20390;-61
2022/05/15 04:47:30;;;;;;;11.35;7.60;;;12.60;1.00;;;;;;4990052;28;20394;-61
2022/05/15 04:49:56;;;;;;;12.55;7.65;;;12.80;99.90;;;;;;4996687;28;20753;-61
2022/05/15 04:52:22;;;;;;;13.40;7.43;;;12.90;92.90;;;;;;5013339;28;20444;-61
2022/05/15 04:54:48;;;;;;;12.40;7.20;;;13.00;1.00;;;;;;4996783;28;20413;-56
2022/05/15 04:57:14;;;;;;;13.52;7.95;;;13.30;96.00;;;;;;4999397;28;20393;-61
2022/05/15 04:59:39;;;;;;;12.40;7.60;;;13.90;1.00;;;;;;5013108;28;20742;-62
2022/05/15 05:02:05;;;;;;;13.73;7.40;;;15.20;1.00;;;;;;5010836;28;20486;-62
2022/05/15 05:04:31;;;;;;;13.48;7.20;;;16.90;99.90;;;;;;5005249;28;20868;-62
2022/05/15 05:06:57;;;;;;;10.77;7.00;;;18.20;1.00;;;;;;4992625;28;20402;-62
2022/05/15 05:09:24;;;;;;;10.82;6.30;;;19.50;99.90;;;;;;5010466;28;20432;-63
2022/05/15 05:11:50;;;;;;;11.63;6.72;;;20.50;99.90;;;;;;5002599;28;20418;-62
2022/05/15 05:14:15;;;;;;;10.43;6.47;;;21.30;99.90;;;;;;4976234;28;20502;-62
2022/05/15 05:16:41;;;;;;;11.65;6.90;;;22.00;99.90;;;;;;5010663;28;20842;-63
2022/05/15 05:19:07;;;;;;;12.50;7.85;;;22.40;99.90;;;;;;5012118;28;20537;-62
2022/05/15 05:21:33;;;;;;;13.07;6.53;;;22.80;99.90;;;;;;5013502;28;20422;-62
2022/05/15 05:23:59;;;;;;;12.30;7.10;;;22.80;99.90;;;;;;4997726;28;20840;-63
2022/05/15 05:26:25;;;;;;;10.20;7.07;;;23.00;99.90;;;;;;4993421;28;20450;-62
2022/05/15 05:28:50;;;;;;;11.70;7.10;;;23.50;99.90;;;;;;4992849;28;20800;-62
2022/05/15 05:31:16;;;;;;;11.97;7.10;;;24.00;99.90;;;;;;5006162;28;20381;-62
2022/05/15 05:33:42;;;;;;;10.13;6.60;;;24.00;99.90;;;;;;5012631;28;20843;-62
2022/05/15 05:36:08;;;;;;;12.95;6.38;;;23.90;99.90;;;;;;5010680;28;20694;-63
2022/05/15 05:38:35;;;;;;;10.60;7.40;;;24.30;99.90;;;;;;5012397;28;21037;-63
2022/05/15 05:41:00;;;;;;;10.20;6.50;;;25.20;99.90;;;;;;5007557;28;20408;-63
2022/05/15 05:43:26;;;;;;;9.95;6.55;;;25.40;99.90;;;;;;4997252;28;20398;-63
2022/05/15 05:45:52;;;;;;;10.45;7.00;;;25.60;99.90;;;;;;4991966;28;20832;-61
2022/05/15 05:48:17;;;;;;;10.95;6.68;;;25.90;99.90;;;;;;5012079;28;20482;-59
2022/05/15 05:50:43;;;;;;;9.63;6.07;;;25.60;99.90;;;;;;5001289;28;20387;-63
2022/05/15 05:53:09;;;;;;;10.10;6.00;;;25.70;99.90;;;;;;4998887;28;20532;-63
2022/05/15 05:55:36;;;;;;;9.70;7.20;;;26.30;99.90;;;;;;5006637;28;20411;-63
2022/05/15 05:58:02;;;;;;;9.88;6.72;;;27.10;99.90;;;;;;5006242;28;20480;-63
2022/05/15 06:00:31;;;;;;;10.80;7.93;;;27.40;99.90;;;;;;5000206;28;20401;-62
2022/05/15 06:05:44;;;;;;;11.00;7.03;;;27.50;99.90;;;;;;4979447;28;20414;-62
2022/05/15 06:08:10;;;;;;;10.15;6.95;;;26.70;99.90;;;;;;4997271;28;20497;-63
2022/05/15 06:10:35;;;;;;;10.13;7.13;;;26.60;99.90;;;;;;5005710;28;20397;-63
2022/05/15 06:13:01;;;;;;;10.30;6.00;;;27.10;99.90;;;;;;4990869;28;20425;-63
2022/05/15 06:15:27;;;;;;;9.63;6.43;;;26.80;99.90;;;;;;4992040;28;20437;-63
2022/05/15 06:17:53;;;;;;;11.20;6.15;;;26.80;99.90;;;;;;4996735;28;20428;-62
2022/05/15 06:20:18;;;;;;;10.63;6.90;;;27.00;99.90;;;;;;5011498;28;20436;-63
2022/05/15 06:22:44;;;;;;;9.98;5.93;;;27.60;99.90;;;;;;4988405;28;20454;-63
2022/05/15 06:25:10;;;;;;;8.98;6.68;;;28.40;99.90;;;;;;4988729;28;20403;-63
2022/05/15 06:27:39;;;;;;;8.97;5.90;;;28.90;99.90;;;;;;4991137;28;20405;-58
2022/05/15 06:30:05;;;;;;;10.23;6.18;;;29.20;99.90;;;;;;4991181;28;20409;-60
2022/05/15 06:32:31;;;;;;;10.65;4.55;;;29.70;99.90;;;;;;4995285;28;20445;-61
2022/05/15 06:34:59;;;;;;;11.05;8.60;;;30.20;99.90;;;;;;4989358;28;20451;-60
2022/05/15 06:37:24;;;;;;;9.68;8.52;;;30.70;99.90;;;;;;4991045;28;20476;-61
2022/05/15 06:39:50;;;;;;;8.87;5.30;;;30.70;99.90;;;;;;4991855;28;20413;-56
2022/05/15 06:42:16;;;;;;;8.10;4.27;;;31.00;99.90;;;;;;4992023;28;20401;-61
2022/05/15 06:44:42;;;;;;;9.40;4.40;;;31.10;99.90;;;;;;4988982;28;20864;-62
2022/05/15 06:47:08;;;;;;;8.45;3.80;;;30.60;99.90;;;;;;4990387;28;20944;-61
2022/05/15 06:49:34;;;;;;;8.47;3.90;;;30.60;99.90;;;;;;4993164;28;20894;-60
2022/05/15 06:51:59;;;;;;;8.40;3.75;;;30.70;99.90;;;;;;4973021;28;20417;-62
2022/05/15 06:54:25;;;;;;;8.43;4.30;;;30.40;99.90;;;;;;4990733;28;20795;-62
2022/05/15 06:59:35;;;;;;;7.50;3.60;;;30.20;99.90;;;;;;4988246;28;20473;-62
2022/05/15 07:02:01;;;;;;;8.82;5.60;;;30.00;99.90;;;;;;4990343;28;20818;-62
2022/05/15 07:04:27;;;;;;;9.48;3.33;;;30.70;99.90;;;;;;4990518;28;20413;-62
2022/05/15 07:06:52;;;;;;;9.60;3.70;;;30.80;99.90;;;;;;4990740;28;20800;-56
2022/05/15 07:09:18;;;;;;;9.50;3.60;;;31.20;99.90;;;;;;4990084;28;20415;-65
2022/05/15 07:11:44;;;;;;;9.63;4.70;;;32.10;99.90;;;;;;4991560;28;20444;-62
2022/05/15 07:14:10;;;;;;;8.80;5.95;;;32.90;99.90;;;;;;4989304;28;20414;-65
2022/05/15 07:16:36;;;;;;;10.75;6.35;;;32.80;99.90;;;;;;4990760;28;20401;-65
2022/05/15 07:19:03;;;;;;;8.20;6.68;;;33.10;99.90;;;;;;4990031;28;20375;-65
2022/05/15 07:21:28;;;;;;;8.68;3.83;;;33.40;99.90;;;;;;4990773;28;20418;-66
2022/05/15 07:23:54;;;;;;;7.10;4.00;;;34.10;99.90;;;;;;4988942;28;20404;-65
2022/05/15 07:26:19;;;;;;;7.40;3.70;;;33.70;99.90;;;;;;4991086;28;20459;-65
2022/05/15 07:28:50;;;;;;;7.90;3.47;;;34.10;99.90;;;;;;4990671;28;20446;-63
2022/05/15 07:31:18;;;;;;;6.90;3.20;;;34.70;99.90;;;;;;4989738;28;20410;-66
2022/05/15 07:33:45;;;;;;;8.07;3.10;;;34.50;99.90;;;;;;4989471;28;20399;-65
2022/05/15 07:36:11;;;;;;;9.50;4.50;;;34.20;99.90;;;;;;4989809;28;20993;-64
2022/05/15 07:38:37;;;;;;;8.60;3.20;;;33.60;99.90;;;;;;4990845;28;20480;-65
2022/05/15 07:41:03;;;;;;;9.17;3.50;;;33.30;99.90;;;;;;4988975;28;20402;-66
2022/05/15 07:43:28;;;;;;;8.87;2.97;;;33.30;99.90;;;;;;4989560;28;20450;-65
2022/05/15 07:45:54;;;;;;;6.70;3.20;;;33.20;99.90;;;;;;4988810;28;20407;-65
2022/05/15 07:48:20;;;;;;;9.07;3.95;;;33.50;99.90;;;;;;4989664;28;20394;-66
2022/05/15 07:50:45;;;;;;;8.35;5.20;;;32.90;99.90;;;;;;4988985;28;20406;-66
2022/05/15 07:53:11;;;;;;;9.23;5.47;;;32.30;99.90;;;;;;4988474;28;20414;-66
2022/05/15 07:55:37;;;;;;;7.27;3.70;;;31.90;99.90;;;;;;4988367;28;20466;-63
2022/05/15 07:58:03;;;;;;;7.20;4.15;;;31.90;99.90;;;;;;4988860;28;20472;-65
2022/05/15 08:00:29;;;;;;;8.53;5.00;;;32.40;99.90;;;;;;4988328;28;20577;-66
2022/05/15 08:03:10;;;;;;;7.50;4.37;;;32.50;99.90;;;;;;4988227;28;20477;-63
2022/05/15 08:08:23;;;;;;;8.85;6.18;;;32.80;99.90;;;;;;4985083;28;20445;-64
2022/05/15 08:10:49;;;;;;;9.50;5.90;;;34.00;1.00;;;;;;4990158;28;20417;-65
2022/05/15 08:13:18;;;;;;;7.72;4.53;;;34.50;1.00;;;;;;4988251;28;20414;-64
2022/05/15 08:15:44;;;;;;;7.57;3.63;;;34.40;1.00;;;;;;4989411;28;20418;-64
2022/05/15 08:23:44;;;;;;;9.00;3.85;;;34.30;1.00;;;;;;4984398;28;20432;-65
2022/05/15 08:26:11;;;;;;;8.23;5.93;;;32.80;1.00;;;;;;4992668;28;20489;-64
2022/05/15 08:28:37;;;;;;;10.50;4.93;;;33.00;1.00;;;;;;4993584;28;20406;-65
2022/05/15 08:31:04;;;;;;;8.50;6.97;;;34.20;1.00;;;;;;4992585;28;20393;-62
2022/05/15 08:33:30;;;;;;;8.63;2.50;;;34.80;1.00;;;;;;4993520;28;20500;-63
2022/05/15 08:35:57;;;;;;;5.77;2.30;;;35.10;1.00;;;;;;4986354;28;20418;-64
2022/05/15 08:38:23;;;;;;;7.40;2.80;;;35.20;1.00;;;;;;4993398;28;20402;-62
2022/05/15 08:41:02;;;;;;;7.70;4.07;;;34.90;1.00;;;;;;4974901;28;20494;-65
2022/05/15 08:43:50;;;;;;;8.00;2.60;;;34.80;1.00;;;;;;4984992;28;20429;-65
2022/05/15 08:46:49;;;;;;;9.43;3.08;;;34.70;1.00;;;;;;4979541;28;20402;-65
2022/05/15 08:49:17;;;;;;;7.10;2.58;;;34.80;1.00;;;;;;4982193;28;21011;-65
2022/05/15 08:52:16;;;;;;;6.18;2.50;;;34.70;1.00;;;;;;4983372;28;21327;-65
2022/05/15 08:55:12;;;;;;;7.55;4.82;;;34.40;1.00;;;;;;4969832;28;20871;-63
2022/05/15 08:58:02;;;;;;;7.13;3.50;;;34.40;1.00;;;;;;4976637;28;20444;-66
2022/05/15 09:00:41;;;;;;;8.80;3.70;;;34.90;1.00;;;;;;4978803;28;20412;-65
2022/05/15 09:03:13;;;;;;;7.28;4.30;;;33.40;1.00;;;;;;4987115;28;20408;-65
2022/05/15 09:05:49;;;;;;;8.50;4.90;;;33.50;1.00;;;;;;4981078;28;20406;-61
2022/05/15 09:08:45;;;;;;;8.48;4.57;;;33.90;1.00;;;;;;4977921;28;21406;-65
2022/05/15 09:11:14;;;;;;;6.80;3.85;;;34.50;1.00;;;;;;4989261;28;20698;-65
2022/05/15 09:13:46;;;;;;;9.07;4.23;;;35.20;1.00;;;;;;4993192;28;20412;-66
2022/05/15 09:16:28;;;;;;;10.07;5.65;;;34.80;1.00;;;;;;4992172;28;20390;-65
2022/05/15 09:19:08;;;;;;;9.05;4.93;;;34.50;1.00;;;;;;4990327;28;20606;-61
2022/05/15 09:21:35;;;;;;;7.77;4.77;;;34.10;1.00;;;;;;4971729;28;20419;-64
2022/05/15 09:24:19;;;;;;;7.85;4.35;;;33.70;1.00;;;;;;4991366;28;20398;-66
2022/05/15 09:26:47;;;;;;;7.65;4.05;;;34.60;1.00;;;;;;4991893;28;20421;-65
2022/05/15 09:29:27;;;;;;;11.20;5.10;;;35.00;1.00;;;;;;4989637;28;20640;-68
2022/05/15 09:31:53;;;;;;;7.10;2.78;;;35.20;1.00;;;;;;4988126;28;20472;-61
2022/05/15 09:34:26;;;;;;;7.80;3.90;;;34.60;1.00;;;;;;4991752;28;20398;-64
2022/05/15 09:38:26;;;;;;;7.47;3.60;;;35.30;1.00;;;;;;4989345;28;20413;-61
2022/05/15 09:39:46;;;;;;;6.63;2.70;;;34.20;1.00;;;;;;4988402;28;20425;-64
2022/05/15 09:45:12;;;;;;;7.10;2.50;;;35.80;1.00;;;;;;4988692;28;20400;-64
2022/05/15 09:47:44;;;;;;;6.43;2.45;;;36.30;1.00;;;;;;4988231;28;20410;-65
2022/05/15 09:50:38;;;;;;;9.13;3.20;;;36.30;1.00;;;;;;4989592;28;20387;-64
2022/05/15 09:53:12;;;;;;;6.57;2.40;;;36.30;1.00;;;;;;4988835;28;21655;-62
2022/05/15 09:55:38;;;;;;;8.68;2.67;;;36.00;1.00;;;;;;4988515;28;20399;-64
2022/05/15 09:58:15;;;;;;;7.20;4.10;;;35.10;1.00;;;;;;4988632;28;20455;-63
2022/05/15 10:00:41;;;;;;;8.70;5.10;;;34.20;1.00;;;;;;4990667;28;20390;-63
2022/05/15 10:03:23;;;;;;;8.70;4.68;;;34.10;1.00;;;;;;4985930;28;20883;-64
2022/05/15 10:06:03;;;;;;;9.67;4.43;;;33.80;1.00;;;;;;4995938;28;20428;-63
2022/05/15 10:08:30;;;;;;;9.00;4.47;;;34.10;1.00;;;;;;4983316;28;20503;-65
2022/05/15 10:11:06;;;;;;;6.50;3.83;;;35.10;1.00;;;;;;4977686;28;20910;-63
2022/05/15 10:13:36;;;;;;;7.95;4.53;;;35.10;1.00;;;;;;4971036;28;20515;-65
2022/05/15 10:16:20;;;;;;;8.68;5.05;;;35.40;1.00;;;;;;4973428;28;21626;-64
2022/05/15 10:18:52;;;;;;;10.02;2.60;;;35.60;1.00;;;;;;4964570;28;20391;-64
2022/05/15 10:21:21;;;;;;;7.72;4.03;;;35.90;1.00;;;;;;4971475;28;20407;-64
2022/05/15 10:23:57;;;;;;;7.75;2.97;;;35.60;1.00;;;;;;4973187;28;20414;-63
2022/05/15 10:26:27;;;;;;;7.15;2.67;;;35.50;1.00;;;;;;4969406;28;20460;-65
2022/05/15 10:29:02;;;;;;;8.35;5.40;;;35.10;1.00;;;;;;4967042;28;20507;-61
2022/05/15 10:31:39;;;;;;;9.45;6.38;;;34.60;1.00;;;;;;4969483;28;20420;-65
2022/05/15 10:34:13;;;;;;;9.00;5.97;;;34.10;1.00;;;;;;4970804;28;20416;-64
2022/05/15 10:37:03;;;;;;;10.20;5.80;;;33.30;1.00;;;;;;4970774;28;20410;-64
2022/05/15 10:39:44;;;;;;;8.50;4.90;;;32.50;1.00;;;;;;4976560;28;20419;-65
2022/05/15 10:42:39;;;;;;;8.30;5.53;;;31.80;1.00;;;;;;4970789;28;20924;-65
2022/05/15 10:45:34;;;;;;;8.15;6.05;;;31.30;1.00;;;;;;4968754;28;20404;-64
2022/05/15 10:48:08;;;;;;;7.97;5.82;;;31.00;1.00;;;;;;4967420;28;20424;-64
2022/05/15 10:50:34;;;;;;;7.93;5.00;;;;;;;;;;4967762;28;20406;-65
2022/05/15 10:58:56;;;;;;;10.48;5.95;;;;;;;;;;4973927;28;20411;-62
2022/05/15 11:01:37;;;;;;;7.53;6.00;;;28.70;1.00;;;;;;4984391;28;20397;-65
2022/05/15 11:04:16;;;;;;;9.95;6.18;;;28.90;99.90;;;;;;4969603;28;20443;-64
2022/05/15 11:07:04;;;;;;;8.60;7.70;;;29.10;99.90;;;;;;4970114;28;20412;-65
2022/05/15 11:09:44;;;;;;;8.93;6.80;;;29.20;99.90;;;;;;4982372;28;20445;-65
2022/05/15 11:12:20;;;;;;;8.77;5.80;;;29.40;99.90;;;;;;4989499;28;20418;-66
2022/05/15 11:15:23;;;;;;;9.23;5.70;;;29.80;99.90;;;;;;4986594;28;20482;-63
2022/05/15 11:18:15;;;;;;;8.10;5.60;;;30.10;99.90;;;;;;4990274;28;20402;-64
2022/05/15 11:20:50;;;;;;;7.95;5.95;;;30.00;99.90;;;;;;4989218;28;20879;-61
2022/05/15 11:23:36;;;;;;;8.70;5.50;;;29.80;99.90;;;;;;4988313;28;20636;-57
2022/05/15 11:26:14;;;;;;;7.85;5.30;;;29.90;99.90;;;;;;4988566;28;20391;-61
2022/05/15 11:28:43;;;;;;;7.70;5.13;;;30.20;99.90;;;;;;4991293;28;20389;-59
2022/05/15 11:31:13;;;;;;;7.80;4.75;;;30.10;99.90;;;;;;5008193;28;20543;-64
2022/05/15 11:33:57;;;;;;;8.07;5.30;;;30.00;99.90;;;;;;4990705;28;20406;-63
2022/05/15 11:36:35;;;;;;;7.53;5.00;;;29.80;99.90;;;;;;4989962;28;20936;-64
2022/05/15 11:39:22;;;;;;;7.82;5.10;;;29.90;99.90;;;;;;4988293;28;20900;-63
2022/05/15 11:44:38;;;;;;;8.20;6.30;;;30.00;99.90;;;;;;5005261;28;20414;-63
2022/05/15 11:47:29;;;;;;;7.23;5.10;;;29.90;99.90;;;;;;4989542;28;20498;-64
2022/05/15 11:50:12;;;;;;;8.05;5.80;;;30.10;99.90;;;;;;4990493;28;20856;-61
2022/05/15 11:53:00;;;;;;;8.77;5.70;;;29.70;99.90;;;;;;4990334;28;20763;-66
2022/05/15 11:55:48;;;;;;;7.60;4.90;;;29.10;99.90;;;;;;4972964;28;20860;-66
2022/05/15 11:58:32;;;;;;;7.68;4.97;;;29.40;99.90;;;;;;4987416;28;20406;-66
2022/05/15 12:01:04;;;;;;;7.80;5.25;;;29.70;99.90;;;;;;4989361;28;20898;-60
2022/05/15 12:03:35;;;;;;;7.10;5.05;;;29.70;99.90;;;;;;4990173;28;20869;-64
2022/05/15 12:06:10;;;;;;;8.27;5.83;;;29.60;99.90;;;;;;4994278;28;20524;-63
2022/05/15 12:08:38;;;;;;;9.20;5.30;;;29.60;99.90;;;;;;5000697;28;20856;-64
2022/05/15 12:11:34;;;;;;;7.22;4.60;;;29.50;99.90;;;;;;4989297;28;20394;-64
2022/05/15 12:14:22;;;;;;;8.15;6.15;;;29.50;99.90;;;;;;4979612;28;20418;-63
2022/05/15 12:17:01;;;;;;;8.95;5.80;;;30.00;99.90;;;;;;5001745;28;20402;-65
2022/05/15 12:19:35;;;;;;;8.60;5.72;;;29.60;99.90;;;;;;4990418;28;20386;-64
2022/05/15 12:22:19;;;;;;;11.45;7.90;;;29.70;99.90;;;;;;4988565;28;20399;-65
2022/05/15 12:24:48;;;;;;;12.18;8.80;;;29.60;99.90;;;;;;4990080;28;20852;-65
2022/05/15 12:27:19;;;;;;;12.48;9.10;;;29.80;99.90;;;;;;4966941;28;20780;-65
2022/05/15 12:30:14;;;;;;;9.13;6.27;;;30.00;99.90;;;;;;4988303;28;20420;-64
2022/05/15 12:32:53;;;;;;;8.20;5.60;;;29.80;99.90;;;;;;4988006;28;20410;-65
2022/05/15 12:35:32;;;;;;;9.13;6.00;;;29.90;99.90;;;;;;4987255;28;20398;-65
2022/05/15 12:38:12;;;;;;;8.02;5.80;;;30.10;99.90;;;;;;4986960;28;20413;-65
2022/05/15 12:40:55;;;;;;;7.13;5.03;;;30.00;99.90;;;;;;4989128;28;20892;-66
2022/05/15 12:43:33;;;;;;;8.93;5.20;;;29.40;99.90;;;;;;4990195;28;20474;-65
2022/05/15 12:45:59;;;;;;;7.22;5.70;;;29.40;99.90;;;;;;4988431;28;20398;-61
2022/05/15 12:48:28;;;;;;;7.75;5.47;;;29.80;99.90;;;;;;4992575;28;20904;-65
2022/05/15 12:51:09;;;;;;;7.10;5.10;;;30.00;99.90;;;;;;4987625;28;20517;-65
2022/05/15 12:53:44;;;;;;;7.20;4.88;;;30.00;99.90;;;;;;4996782;28;20600;-65
2022/05/15 12:56:16;;;;;;;9.90;5.13;;;29.70;99.90;;;;;;4986980;28;20422;-65
2022/05/15 12:58:48;;;;;;;8.00;5.60;;;29.90;99.90;;;;;;5007255;28;20396;-65
2022/05/15 13:01:15;;;;;;;8.00;5.78;;;29.90;99.90;;;;;;5008344;28;20416;-65
2022/05/15 13:03:42;;;;;;;9.00;5.57;;;30.00;99.90;;;;;;4998844;28;20445;-65
2022/05/15 13:06:08;;;;;;;9.43;5.90;;;30.00;99.90;;;;;;4985204;28;20915;-65
2022/05/15 13:08:49;;;;;;;7.68;4.95;;;30.00;99.90;;;;;;4982642;28;20690;-65
2022/05/15 13:11:28;;;;;;;9.63;6.25;;;30.00;99.90;;;;;;4992608;28;20494;-64
2022/05/15 13:13:58;;;;;;;6.65;5.32;;;29.90;99.90;;;;;;4990065;28;21087;-64
2022/05/15 13:16:29;;;;;;;8.10;6.00;;;30.00;99.90;;;;;;4991700;28;20400;-64
2022/05/15 13:18:56;;;;;;;9.57;6.30;;;29.70;99.90;;;;;;4991031;28;20537;-64
2022/05/15 13:21:33;;;;;;;8.93;5.25;;;29.70;99.90;;;;;;4991502;28;20398;-64
2022/05/15 13:23:59;;;;;;;7.95;4.70;;;29.80;99.90;;;;;;4988711;28;20464;-59
2022/05/15 13:26:32;;;;;;;7.85;5.50;;;29.80;99.90;;;;;;4974705;28;20441;-65